Time;durP1;ratioP1;P1;durP2;ratioP2;P2;SDS_P1;SDS_P2;PMS_P1;PMS_P2;Temp;Humidity;BMP_temperature;BMP_pressure;BME280_temperature;BME280_humidity;BME280_pressure;Samples;Min_cycle;Max_cycle;Signal;HPM_P1;HPM_P2
2021/10/30 00:00:17;;;;;;;;;;;;;;;7.54;48.33;94856.75;5003749;28;19922;-65
2021/10/30 00:02:42;;;;;;;;;;;;;;;7.80;47.53;94865.38;5003688;28;19929;-66
2021/10/30 00:05:09;;;;;;;;;;;;;;;7.86;47.30;94855.88;5003337;28;20139;-65
2021/10/30 00:07:34;;;;;;;;;;;;;;;7.70;47.73;94851.50;5002479;28;19914;-66
2021/10/30 00:09:59;;;;;;;;;;;;;;;7.68;47.88;94861.47;5003420;28;19918;-66
2021/10/30 00:12:24;;;;;;;;;;;;;;;7.76;47.90;94856.91;5003073;28;20274;-66
2021/10/30 00:14:50;;;;;;;;;;;;;;;7.82;47.60;94857.25;5003694;28;20389;-64
2021/10/30 00:17:15;;;;;;;;;;;;;;;7.85;47.34;94860.34;5003151;28;19922;-64
2021/10/30 00:19:40;;;;;;;;;;;;;;;8.02;46.98;94844.28;5003256;28;20401;-64
2021/10/30 00:22:05;;;;;;;;;;;;;;;8.07;46.95;94844.56;5003159;28;19972;-65
2021/10/30 00:24:34;;;;;;;;;;;;;;;8.01;47.42;94845.28;5003195;28;20342;-65
2021/10/30 00:26:59;;;;;;;;;;;;;;;8.30;46.69;94843.69;5003064;28;20126;-65
2021/10/30 00:29:25;;;;;;;;;;;;;;;8.30;46.74;94846.34;5002848;28;19930;-65
2021/10/30 00:31:50;;;;;;;;;;;;;;;8.35;46.82;94835.16;5003315;28;19972;-65
2021/10/30 00:34:15;;;;;;;;;;;;;;;8.42;46.75;94828.94;5002897;28;19918;-64
2021/10/30 00:36:41;;;;;;;;;;;;;;;8.41;46.95;94821.19;5003249;28;20173;-65
2021/10/30 00:39:06;;;;;;;;;;;;;;;8.47;46.66;94825.72;5002949;28;19917;-65
2021/10/30 00:41:31;;;;;;;;;;;;;;;8.49;46.54;94820.25;5002467;28;19943;-65
2021/10/30 00:43:56;;;;;;;;;;;;;;;8.52;46.86;94822.53;5002969;28;20330;-65
2021/10/30 00:46:22;;;;;;;;;;;;;;;8.20;47.42;94814.78;5001435;28;20104;-66
2021/10/30 00:48:47;;;;;;;;;;;;;;;8.35;47.03;94821.91;5002875;28;19932;-66
2021/10/30 00:51:12;;;;;;;;;;;;;;;8.34;47.75;94831.69;5003346;28;19917;-66
2021/10/30 00:53:38;;;;;;;;;;;;;;;8.51;46.96;94835.00;5002846;28;19928;-66
2021/10/30 00:56:03;;;;;;;;;;;;;;;8.53;46.84;94840.91;5001854;28;20020;-66
2021/10/30 00:58:29;;;;;;;;;;;;;;;8.59;46.23;94834.06;5002684;28;20167;-66
2021/10/30 01:00:54;;;;;;;;;;;;;;;8.38;48.18;94848.06;5002719;28;19987;-65
2021/10/30 01:03:20;;;;;;;;;;;;;;;8.52;46.66;94839.28;5002878;28;19922;-65
2021/10/30 01:05:45;;;;;;;;;;;;;;;8.47;46.90;94840.84;5002514;28;20461;-65
2021/10/30 01:08:13;;;;;;;;;;;;;;;8.44;46.85;94836.72;5003122;28;19925;-66
2021/10/30 01:10:38;;;;;;;;;;;;;;;8.58;45.89;94835.06;5002750;28;19921;-63
2021/10/30 01:13:03;;;;;;;;;;;;;;;8.49;46.12;94823.72;5002640;28;20330;-64
2021/10/30 01:15:29;;;;;;;;;;;;;;;8.30;46.49;94819.81;5002900;28;19917;-65
2021/10/30 01:17:54;;;;;;;;;;;;;;;8.61;45.77;94813.47;5002230;28;19921;-67
2021/10/30 01:20:25;;;;;;;;;;;;;;;8.52;45.95;94810.09;5002815;28;19959;-66
2021/10/30 01:22:50;;;;;;;;;;;;;;;8.28;46.42;94804.09;5002632;28;19924;-65
2021/10/30 01:25:20;;;;;;;;;;;;;;;8.31;46.11;94805.53;5006368;28;19922;-67
2021/10/30 01:27:45;;;;;;;;;;;;;;;8.37;46.18;94806.63;5006413;28;20207;-66
2021/10/30 01:30:13;;;;;;;;;;;;;;;8.14;46.51;94804.91;5006533;28;20401;-66
2021/10/30 01:32:39;;;;;;;;;;;;;;;8.29;46.42;94810.19;5005040;28;20544;-67
2021/10/30 01:35:04;;;;;;;;;;;;;;;8.23;45.85;94806.44;5006446;28;19933;-66
2021/10/30 01:37:29;;;;;;;;;;;;;;;8.16;46.08;94802.91;5005978;28;20414;-65
2021/10/30 01:39:54;;;;;;;;;;;;;;;8.16;45.86;94814.31;5006655;28;19918;-66
2021/10/30 01:42:20;;;;;;;;;;;;;;;8.09;46.21;94815.25;5006107;28;20392;-66
2021/10/30 01:44:45;;;;;;;;;;;;;;;8.02;46.42;94818.59;5006116;28;20402;-63
2021/10/30 01:47:10;;;;;;;;;;;;;;;8.00;46.32;94820.63;5006172;28;19948;-65
2021/10/30 01:49:35;;;;;;;;;;;;;;;8.00;46.50;94817.13;5006060;28;19921;-65
2021/10/30 01:52:01;;;;;;;;;;;;;;;8.10;45.87;94807.09;5006497;28;19972;-65
2021/10/30 01:54:26;;;;;;;;;;;;;;;8.03;45.94;94800.88;5005851;28;20374;-65
2021/10/30 01:56:51;;;;;;;;;;;;;;;8.09;46.00;94808.09;5004315;28;20219;-65
2021/10/30 01:59:17;;;;;;;;;;;;;;;8.03;46.52;94796.38;5006466;28;19971;-64
2021/10/30 02:01:42;;;;;;;;;;;;;;;7.99;46.51;94792.44;5005951;28;19932;-63
2021/10/30 02:04:07;;;;;;;;;;;;;;;7.61;47.91;94795.09;5005908;28;19925;-65
2021/10/30 02:06:32;;;;;;;;;;;;;;;7.74;47.01;94797.97;5005610;28;20359;-63
2021/10/30 02:08:58;;;;;;;;;;;;;;;7.58;48.80;94790.19;5005592;28;19948;-64
2021/10/30 02:11:23;;;;;;;;;;;;;;;7.74;46.98;94784.72;5005714;28;19918;-63
2021/10/30 02:13:48;;;;;;;;;;;;;;;7.84;46.58;94783.66;5005970;28;19918;-63
2021/10/30 02:16:14;;;;;;;;;;;;;;;7.87;46.68;94765.59;5005886;28;20184;-64
2021/10/30 02:18:40;;;;;;;;;;;;;;;7.97;46.36;94761.84;5005535;28;19940;-63
2021/10/30 02:21:05;;;;;;;;;;;;;;;7.83;46.66;94766.97;5005314;28;19932;-64
2021/10/30 02:23:30;;;;;;;;;;;;;;;7.96;46.03;94760.19;5005421;28;19913;-64
2021/10/30 02:25:55;;;;;;;;;;;;;;;7.91;46.50;94761.56;5005262;28;19917;-65
2021/10/30 02:28:21;;;;;;;;;;;;;;;7.83;46.32;94752.88;5005679;28;19929;-64
2021/10/30 02:30:47;;;;;;;;;;;;;;;7.65;46.61;94759.34;5005420;28;19918;-63
2021/10/30 02:33:12;;;;;;;;;;;;;;;7.91;46.18;94753.63;5004967;28;19921;-65
2021/10/30 02:35:37;;;;;;;;;;;;;;;7.87;46.29;94748.84;5004977;28;20063;-65
2021/10/30 02:38:02;;;;;;;;;;;;;;;7.84;46.54;94738.63;5005185;28;20290;-64
2021/10/30 02:40:28;;;;;;;;;;;;;;;7.90;45.96;94735.25;5005561;28;20068;-64
2021/10/30 02:42:53;;;;;;;;;;;;;;;7.87;46.59;94748.84;5005607;28;20173;-65
2021/10/30 02:45:18;;;;;;;;;;;;;;;7.90;46.49;94741.38;5005045;28;20390;-64
2021/10/30 02:47:43;;;;;;;;;;;;;;;7.88;46.44;94747.84;5004125;28;19921;-65
2021/10/30 02:50:09;;;;;;;;;;;;;;;7.97;46.59;94736.16;5004667;28;20176;-66
2021/10/30 02:52:34;;;;;;;;;;;;;;;7.98;46.45;94729.00;5005226;28;20397;-64
2021/10/30 02:54:59;;;;;;;;;;;;;;;7.98;45.97;94711.28;5004672;28;20085;-64
2021/10/30 02:57:25;;;;;;;;;;;;;;;7.95;46.08;94711.66;5004622;28;19924;-64
2021/10/30 02:59:51;;;;;;;;;;;;;;;7.94;46.35;94709.19;5003731;28;19918;-65
2021/10/30 03:02:16;;;;;;;;;;;;;;;8.02;45.80;94712.56;5004871;28;20011;-65
2021/10/30 03:04:41;;;;;;;;;;;;;;;8.01;45.96;94696.84;5004413;28;20322;-64
2021/10/30 03:07:06;;;;;;;;;;;;;;;8.03;45.99;94693.00;5005004;28;19922;-65
2021/10/30 03:09:32;;;;;;;;;;;;;;;8.02;46.33;94704.63;5004377;28;20006;-64
2021/10/30 03:11:57;;;;;;;;;;;;;;;8.19;45.89;94693.81;5005100;28;19972;-64
2021/10/30 03:14:22;;;;;;;;;;;;;;;8.23;45.39;94691.63;5004462;28;19917;-64
2021/10/30 03:16:48;;;;;;;;;;;;;;;8.11;46.22;94684.13;5004416;28;20379;-63
2021/10/30 03:19:13;;;;;;;;;;;;;;;8.35;45.24;94689.28;5004683;28;19921;-65
2021/10/30 03:21:38;;;;;;;;;;;;;;;8.30;45.53;94690.66;5004312;28;19921;-64
2021/10/30 03:24:04;;;;;;;;;;;;;;;8.16;46.00;94687.03;5004087;28;19931;-62
2021/10/30 03:26:29;;;;;;;;;;;;;;;8.24;46.47;94690.59;5004478;28;19960;-63
2021/10/30 03:28:55;;;;;;;;;;;;;;;8.29;45.30;94689.03;5003845;28;20517;-62
2021/10/30 03:31:20;;;;;;;;;;;;;;;8.29;45.77;94683.72;5004414;28;19970;-64
2021/10/30 03:33:45;;;;;;;;;;;;;;;8.01;46.30;94689.72;5004068;28;20306;-63
2021/10/30 03:36:10;;;;;;;;;;;;;;;8.01;46.80;94688.91;5004201;28;20004;-64
2021/10/30 03:38:37;;;;;;;;;;;;;;;8.02;46.40;94683.41;5003942;28;19921;-62
2021/10/30 03:41:02;;;;;;;;;;;;;;;8.41;45.56;94681.44;5004076;28;19999;-63
2021/10/30 03:43:28;;;;;;;;;;;;;;;8.26;47.00;94683.28;5003985;28;19914;-62
2021/10/30 03:45:53;;;;;;;;;;;;;;;8.43;45.43;94682.03;5003267;28;19921;-63
2021/10/30 03:48:20;;;;;;;;;;;;;;;8.49;45.60;94669.88;5004058;28;20452;-63
2021/10/30 03:50:46;;;;;;;;;;;;;;;8.35;46.11;94678.69;5003678;28;19917;-64
2021/10/30 03:53:11;;;;;;;;;;;;;;;8.61;44.69;94674.69;5003437;28;19972;-64
2021/10/30 03:55:36;;;;;;;;;;;;;;;8.65;45.07;94670.63;5003769;28;20375;-65
2021/10/30 03:58:01;;;;;;;;;;;;;;;8.69;44.86;94658.63;5003603;28;19983;-64
2021/10/30 04:00:27;;;;;;;;;;;;;;;8.65;45.08;94662.69;5000312;28;19924;-64
2021/10/30 04:02:52;;;;;;;;;;;;;;;8.73;44.84;94667.03;5000384;28;19924;-62
2021/10/30 04:05:17;;;;;;;;;;;;;;;8.79;44.27;94664.44;5003192;28;20197;-64
2021/10/30 04:07:43;;;;;;;;;;;;;;;8.93;44.52;94653.94;5004050;28;19918;-65
2021/10/30 04:10:08;;;;;;;;;;;;;;;8.92;43.82;94655.78;5003499;28;20297;-64
2021/10/30 04:12:33;;;;;;;;;;;;;;;8.91;44.48;94659.44;5003970;28;19967;-65
2021/10/30 04:14:59;;;;;;;;;;;;;;;9.00;43.85;94644.22;5003236;28;19925;-64
2021/10/30 04:17:24;;;;;;;;;;;;;;;8.98;44.57;94642.78;5003289;28;20006;-64
2021/10/30 04:19:49;;;;;;;;;;;;;;;9.00;44.41;94649.53;5003315;28;20000;-64
2021/10/30 04:22:15;;;;;;;;;;;;;;;9.05;44.07;94656.94;5003290;28;19918;-64
2021/10/30 04:24:40;;;;;;;;;;;;;;;9.08;44.24;94652.06;5003337;28;19996;-65
2021/10/30 04:27:05;;;;;;;;;;;;;;;9.19;43.63;94649.91;5003236;28;19952;-65
2021/10/30 04:29:31;;;;;;;;;;;;;;;9.24;43.62;94644.81;5002938;28;20295;-66
2021/10/30 04:31:58;;;;;;;;;;;;;;;9.21;43.74;94639.88;5003467;28;20011;-66
2021/10/30 04:34:34;;;;;;;;;;;;;;;9.17;43.68;94638.63;5003102;28;19925;-65
2021/10/30 04:37:02;;;;;;;;;;;;;;;9.14;44.04;94639.00;5003026;28;19980;-65
2021/10/30 04:39:27;;;;;;;;;;;;;;;9.15;44.09;94648.63;5003141;28;19922;-65
2021/10/30 04:41:52;;;;;;;;;;;;;;;9.18;43.48;94641.09;5002936;28;20008;-66
2021/10/30 04:44:17;;;;;;;;;;;;;;;9.19;43.41;94636.63;5002271;28;19929;-66
2021/10/30 04:46:43;;;;;;;;;;;;;;;9.19;43.62;94642.72;5002988;28;19968;-66
2021/10/30 04:49:08;;;;;;;;;;;;;;;9.23;43.46;94642.34;5001629;28;20232;-65
2021/10/30 04:51:33;;;;;;;;;;;;;;;9.18;43.68;94638.44;5002935;28;19956;-66
2021/10/30 04:53:58;;;;;;;;;;;;;;;9.29;43.82;94638.94;5002851;28;19969;-66
2021/10/30 04:56:24;;;;;;;;;;;;;;;9.29;43.24;94630.97;5002900;28;19917;-65
2021/10/30 04:58:49;;;;;;;;;;;;;;;9.36;43.26;94626.53;5003099;28;19924;-66
2021/10/30 05:01:15;;;;;;;;;;;;;;;9.33;43.69;94618.94;5002498;28;20310;-67
2021/10/30 05:03:40;;;;;;;;;;;;;;;9.38;43.45;94621.81;5002993;28;20039;-66
2021/10/30 05:06:06;;;;;;;;;;;;;;;9.42;42.98;94616.94;5002656;28;19996;-66
2021/10/30 05:08:31;;;;;;;;;;;;;;;9.53;42.56;94620.88;5002041;28;19917;-66
2021/10/30 05:10:56;;;;;;;;;;;;;;;9.58;42.47;94613.97;5002217;28;19929;-66
2021/10/30 05:13:22;;;;;;;;;;;;;;;9.56;41.76;94607.22;5002555;28;19918;-65
2021/10/30 05:15:47;;;;;;;;;;;;;;;9.59;42.14;94599.66;5002691;28;20448;-66
2021/10/30 05:18:12;;;;;;;;;;;;;;;9.50;42.37;94600.84;5002514;28;19928;-66
2021/10/30 05:20:37;;;;;;;;;;;;;;;9.59;41.78;94594.34;5003365;28;19922;-66
2021/10/30 05:23:03;;;;;;;;;;;;;;;9.52;42.01;94595.34;5002555;28;20425;-64
2021/10/30 05:25:28;;;;;;;;;;;;;;;9.50;41.94;94587.56;5002678;28;19926;-66
2021/10/30 05:27:53;;;;;;;;;;;;;;;9.42;42.22;94577.91;5002857;28;20008;-66
2021/10/30 05:30:19;;;;;;;;;;;;;;;9.44;42.06;94575.06;5002270;28;20028;-62
2021/10/30 05:32:44;;;;;;;;;;;;;;;9.35;42.40;94568.28;5002218;28;20028;-64
2021/10/30 05:35:09;;;;;;;;;;;;;;;9.41;42.20;94573.63;5002334;28;20028;-64
2021/10/30 05:37:34;;;;;;;;;;;;;;;9.42;41.66;94561.16;5001022;28;19948;-65
2021/10/30 05:40:00;;;;;;;;;;;;;;;9.42;41.32;94561.97;5002990;28;19949;-63
2021/10/30 05:42:25;;;;;;;;;;;;;;;9.43;41.19;94560.13;5002360;28;19921;-65
2021/10/30 05:44:51;;;;;;;;;;;;;;;9.35;42.20;94565.63;5002027;28;19921;-65
2021/10/30 05:47:16;;;;;;;;;;;;;;;9.43;41.09;94542.38;4995640;28;19914;-64
2021/10/30 05:49:43;;;;;;;;;;;;;;;9.51;41.04;94549.34;4998481;28;20311;-65
2021/10/30 05:52:08;;;;;;;;;;;;;;;9.70;40.21;94550.44;4998623;28;19917;-65
2021/10/30 05:54:33;;;;;;;;;;;;;;;9.62;40.06;94545.28;4989414;28;19948;-65
2021/10/30 05:56:59;;;;;;;;;;;;;;;9.58;40.34;94544.88;4999617;28;19928;-65
2021/10/30 05:59:25;;;;;;;;;;;;;;;9.68;40.04;94541.03;4993336;28;19921;-66
2021/10/30 06:01:50;;;;;;;;;;;;;;;9.79;39.83;94531.69;4998197;28;20382;-66
2021/10/30 06:04:15;;;;;;;;;;;;;;;9.63;39.93;94525.69;4998634;28;20020;-65
2021/10/30 06:06:41;;;;;;;;;;;;;;;9.78;39.36;94514.91;4997680;28;20301;-65
2021/10/30 06:09:06;;;;;;;;;;;;;;;9.70;40.23;94517.75;4998590;28;19922;-66
2021/10/30 06:11:31;;;;;;;;;;;;;;;9.47;40.59;94521.53;5001925;28;19975;-66
2021/10/30 06:13:56;;;;;;;;;;;;;;;9.39;41.01;94527.81;5002010;28;19975;-65
2021/10/30 06:16:22;;;;;;;;;;;;;;;9.65;39.94;94514.88;4991989;28;19964;-66
2021/10/30 06:18:49;;;;;;;;;;;;;;;9.61;40.09;94522.41;5001873;28;19976;-65
2021/10/30 06:21:14;;;;;;;;;;;;;;;9.61;40.32;94527.72;5001291;28;20008;-66
2021/10/30 06:23:40;;;;;;;;;;;;;;;9.63;39.76;94524.88;5002018;28;20048;-66
2021/10/30 06:26:05;;;;;;;;;;;;;;;9.91;39.42;94523.94;5001614;28;20412;-65
2021/10/30 06:28:30;;;;;;;;;;;;;;;9.91;39.04;94527.41;5001583;28;19921;-66
2021/10/30 06:30:56;;;;;;;;;;;;;;;9.91;39.20;94529.25;5001543;28;19922;-66
2021/10/30 06:33:21;;;;;;;;;;;;;;;9.88;39.07;94525.16;4998636;28;20517;-65
2021/10/30 06:35:46;;;;;;;;;;;;;;;9.89;39.33;94532.09;5001302;28;19921;-66
2021/10/30 06:38:12;;;;;;;;;;;;;;;10.05;38.67;94522.13;4999682;28;19975;-67
2021/10/30 06:40:38;;;;;;;;;;;;;;;9.79;39.58;94527.16;4999565;28;19918;-66
2021/10/30 06:43:03;;;;;;;;;;;;;;;9.68;39.44;94522.41;5000997;28;19953;-67
2021/10/30 06:45:28;;;;;;;;;;;;;;;9.85;39.00;94518.41;4995439;28;20430;-67
2021/10/30 06:47:53;;;;;;;;;;;;;;;9.63;39.12;94523.03;5000778;28;19967;-65
2021/10/30 06:50:20;;;;;;;;;;;;;;;9.59;39.15;94513.81;4998122;28;20418;-65
2021/10/30 06:52:48;;;;;;;;;;;;;;;9.49;38.87;94524.00;4990342;28;19956;-66
2021/10/30 06:55:13;;;;;;;;;;;;;;;9.24;39.67;94520.00;4992647;28;19972;-66
2021/10/30 06:57:38;;;;;;;;;;;;;;;9.44;39.34;94513.94;5000678;28;19976;-67
2021/10/30 07:00:05;;;;;;;;;;;;;;;9.57;39.21;94523.81;4999231;28;19925;-67
2021/10/30 07:02:31;;;;;;;;;;;;;;;9.67;38.85;94512.81;4993739;28;19929;-67
2021/10/30 07:04:56;;;;;;;;;;;;;;;9.67;39.12;94523.44;4998508;28;20047;-67
2021/10/30 07:07:21;;;;;;;;;;;;;;;9.65;39.42;94520.19;4999123;28;19925;-66
2021/10/30 07:09:46;;;;;;;;;;;;;;;9.65;39.14;94513.00;4993796;28;20317;-66
2021/10/30 07:12:12;;;;;;;;;;;;;;;9.59;39.14;94508.50;5000701;28;19921;-65
2021/10/30 07:14:37;;;;;;;;;;;;;;;9.58;38.30;94526.28;4993717;28;19932;-66
2021/10/30 07:17:02;;;;;;;;;;;;;;;9.58;38.95;94523.63;4995216;28;19921;-65
2021/10/30 07:19:28;;;;;;;;;;;;;;;9.65;38.98;94520.19;5000386;28;19948;-67
2021/10/30 07:21:53;;;;;;;;;;;;;;;9.68;39.11;94533.06;4997506;28;19926;-67
2021/10/30 07:24:19;;;;;;;;;;;;;;;9.72;38.97;94534.28;4996838;28;19977;-67
2021/10/30 07:26:44;;;;;;;;;;;;;;;9.90;37.77;94535.59;4991775;28;19926;-67
2021/10/30 07:29:09;;;;;;;;;;;;;;;9.70;38.11;94531.03;4999601;28;20245;-67
2021/10/30 07:31:35;;;;;;;;;;;;;;;9.77;38.34;94531.88;4994097;28;19921;-67
2021/10/30 07:34:00;;;;;;;;;;;;;;;9.85;37.89;94529.03;5000184;28;19926;-68
2021/10/30 07:36:25;;;;;;;;;;;;;;;9.91;37.91;94530.06;5000473;28;19929;-66
2021/10/30 07:38:50;;;;;;;;;;;;;;;9.50;38.94;94541.56;4999554;28;19921;-67
2021/10/30 07:41:16;;;;;;;;;;;;;;;9.75;38.26;94544.53;4997950;28;19925;-66
2021/10/30 07:43:42;;;;;;;;;;;;;;;9.84;37.93;94554.00;4995761;28;19917;-67
2021/10/30 07:46:07;;;;;;;;;;;;;;;9.85;38.10;94547.66;4999362;28;20410;-67
2021/10/30 07:48:32;;;;;;;;;;;;;;;9.93;38.24;94545.81;4997955;28;19922;-67
2021/10/30 07:50:57;;;;;;;;;;;;;;;9.99;38.01;94539.69;4997631;28;19983;-66
2021/10/30 07:53:23;;;;;;;;;;;;;;;9.92;38.11;94537.03;4996038;28;19925;-67
2021/10/30 07:55:48;;;;;;;;;;;;;;;9.87;38.82;94538.63;4999775;28;19932;-66
2021/10/30 07:58:14;;;;;;;;;;;;;;;10.00;38.14;94530.72;4996410;28;19935;-67
2021/10/30 08:00:39;;;;;;;;;;;;;;;9.93;37.57;94535.19;4995681;28;20390;-66
2021/10/30 08:03:04;;;;;;;;;;;;;;;9.66;39.91;94532.44;4995970;28;19995;-67
2021/10/30 08:05:30;;;;;;;;;;;;;;;9.82;37.93;94529.44;4999255;28;19929;-68
2021/10/30 08:07:55;;;;;;;;;;;;;;;9.73;37.95;94535.94;4998773;28;19928;-67
2021/10/30 08:10:22;;;;;;;;;;;;;;;9.66;38.50;94535.09;4998812;28;19925;-65
2021/10/30 08:12:47;;;;;;;;;;;;;;;9.80;38.09;94536.78;4996477;28;19926;-67
2021/10/30 08:15:13;;;;;;;;;;;;;;;9.78;38.64;94532.69;4997370;28;20026;-67
2021/10/30 08:17:38;;;;;;;;;;;;;;;9.72;38.42;94536.94;4999442;28;19960;-66
2021/10/30 08:20:04;;;;;;;;;;;;;;;9.67;38.46;94528.75;4993585;28;20362;-66
2021/10/30 08:22:29;;;;;;;;;;;;;;;9.76;38.04;94530.22;4992543;28;19999;-66
2021/10/30 08:24:54;;;;;;;;;;;;;;;9.72;38.10;94532.47;4996470;28;19925;-67
2021/10/30 08:27:20;;;;;;;;;;;;;;;9.73;38.32;94520.00;4997125;28;20184;-67
2021/10/30 08:29:45;;;;;;;;;;;;;;;9.89;38.43;94515.34;4992949;28;20306;-67
2021/10/30 08:32:10;;;;;;;;;;;;;;;9.65;40.76;94514.88;4997567;28;19995;-67
2021/10/30 08:34:36;;;;;;;;;;;;;;;9.76;38.05;94514.25;4992854;28;19940;-64
2021/10/30 08:37:01;;;;;;;;;;;;;;;9.92;37.69;94518.41;4999250;28;19968;-63
2021/10/30 08:39:27;;;;;;;;;;;;;;;9.84;39.85;94522.09;4998685;28;20326;-65
2021/10/30 08:41:53;;;;;;;;;;;;;;;9.90;39.18;94519.63;4999026;28;19932;-66
2021/10/30 08:44:19;;;;;;;;;;;;;;;9.74;37.43;94511.00;4994987;28;19917;-66
2021/10/30 08:46:44;;;;;;;;;;;;;;;10.00;37.20;94514.75;4998115;28;19921;-67
2021/10/30 08:49:10;;;;;;;;;;;;;;;9.89;37.93;94510.03;4997678;28;19930;-67
2021/10/30 08:51:36;;;;;;;;;;;;;;;10.07;37.50;94515.59;4997616;28;19991;-67
2021/10/30 08:54:01;;;;;;;;;;;;;;;10.01;37.65;94519.06;4998750;28;20430;-65
2021/10/30 08:56:27;;;;;;;;;;;;;;;10.15;37.16;94522.59;4998828;28;20011;-66
2021/10/30 08:58:52;;;;;;;;;;;;;;;10.04;37.56;94518.66;4998361;28;19926;-66
2021/10/30 09:01:18;;;;;;;;;;;;;;;10.07;38.06;94520.91;4998885;28;20215;-67
2021/10/30 09:03:43;;;;;;;;;;;;;;;10.03;37.53;94530.28;4999091;28;20354;-66
2021/10/30 09:06:09;;;;;;;;;;;;;;;9.95;40.16;94525.16;4981707;28;19954;-65
2021/10/30 09:08:34;;;;;;;;;;;;;;;10.01;38.37;94532.34;4981972;28;19929;-61
2021/10/30 09:11:01;;;;;;;;;;;;;;;9.87;35.73;94541.31;4988892;28;19926;-62
2021/10/30 09:13:30;;;;;;;;;;;;;;;9.63;36.34;94546.13;4988101;28;19928;-61
2021/10/30 09:15:55;;;;;;;;;;;;;;;9.85;35.65;94533.53;4995812;28;19925;-62
2021/10/30 09:18:21;;;;;;;;;;;;;;;9.74;37.25;94531.44;4986855;28;19933;-63
2021/10/30 09:20:48;;;;;;;;;;;;;;;9.70;39.32;94523.06;4990075;28;19921;-65
2021/10/30 09:23:17;;;;;;;;;;;;;;;10.11;35.93;94502.72;4990148;28;19926;-63
2021/10/30 09:25:56;;;;;;;;;;;;;;;10.25;37.09;94514.22;4987909;28;19972;-64
2021/10/30 09:28:25;;;;;;;;;;;;;;;10.23;36.88;94529.53;4981981;28;19972;-64
2021/10/30 09:30:57;;;;;;;;;;;;;;;10.33;36.70;94513.19;4987821;28;19925;-64
2021/10/30 09:33:22;;;;;;;;;;;;;;;10.47;36.52;94511.34;4992185;28;20345;-66
2021/10/30 09:35:47;;;;;;;;;;;;;;;10.64;37.04;94511.75;4998036;28;20355;-66
2021/10/30 09:38:25;;;;;;;;;;;;;;;10.71;36.62;94504.59;4998323;28;19967;-63
2021/10/30 09:40:50;;;;;;;;;;;;;;;10.92;36.06;94504.56;4996734;28;19944;-65
2021/10/30 09:43:17;;;;;;;;;;;;;;;10.93;35.89;94512.34;4998571;28;19925;-65
2021/10/30 09:45:48;;;;;;;;;;;;;;;10.95;36.89;94504.97;5000940;28;20386;-65
2021/10/30 09:48:15;;;;;;;;;;;;;;;11.03;35.65;94501.28;5002301;28;19918;-63
2021/10/30 09:50:41;;;;;;;;;;;;;;;11.17;36.35;94495.94;5002075;28;20025;-65
2021/10/30 09:53:25;;;;;;;;;;;;;;;11.08;36.30;94498.00;5001914;28;20227;-63
2021/10/30 09:55:52;;;;;;;;;;;;;;;10.91;37.12;94485.09;5001741;28;20214;-62
2021/10/30 09:58:19;;;;;;;;;;;;;;;11.16;36.79;94488.97;5001443;28;19933;-64
2021/10/30 10:00:44;;;;;;;;;;;;;;;11.03;37.30;94495.94;5000359;28;20431;-64
2021/10/30 10:03:10;;;;;;;;;;;;;;;11.16;37.28;94489.81;5001597;28;19922;-63
2021/10/30 10:05:36;;;;;;;;;;;;;;;11.13;37.23;94491.00;4999333;28;20464;-65
2021/10/30 10:08:01;;;;;;;;;;;;;;;11.23;37.47;94487.94;5001592;28;19918;-64
2021/10/30 10:10:27;;;;;;;;;;;;;;;11.30;37.38;94479.09;5001009;28;19927;-64
2021/10/30 10:12:53;;;;;;;;;;;;;;;11.37;37.23;94471.91;4999782;28;20441;-65
2021/10/30 10:15:20;;;;;;;;;;;;;;;11.43;37.58;94470.22;5000892;28;19976;-64
2021/10/30 10:17:45;;;;;;;;;;;;;;;11.45;37.95;94481.47;4996692;28;19925;-65
2021/10/30 10:20:11;;;;;;;;;;;;;;;11.58;37.86;94462.78;4999363;28;19932;-65
2021/10/30 10:22:36;;;;;;;;;;;;;;;11.61;37.52;94465.03;4992937;28;20377;-64
2021/10/30 10:25:20;;;;;;;;;;;;;;;11.66;37.80;94471.56;5000861;28;20344;-65
2021/10/30 10:27:45;;;;;;;;;;;;;;;11.46;38.11;94469.81;5001077;28;19913;-66
2021/10/30 10:30:11;;;;;;;;;;;;;;;11.80;37.40;94478.44;4999179;28;19930;-65
2021/10/30 10:32:36;;;;;;;;;;;;;;;11.89;37.33;94463.00;4999377;28;19917;-65
2021/10/30 10:35:05;;;;;;;;;;;;;;;11.90;37.37;94476.13;5000611;28;19972;-65
2021/10/30 10:37:30;;;;;;;;;;;;;;;11.71;37.25;94469.06;4997777;28;20301;-65
2021/10/30 10:39:59;;;;;;;;;;;;;;;11.80;37.12;94470.44;5001190;28;19925;-65
2021/10/30 10:42:34;;;;;;;;;;;;;;;11.93;36.49;94471.41;4992156;28;20362;-66
2021/10/30 10:45:00;;;;;;;;;;;;;;;11.60;37.15;94473.22;5000393;28;19917;-64
2021/10/30 10:47:34;;;;;;;;;;;;;;;11.68;36.74;94475.66;5000593;28;19928;-65
2021/10/30 10:50:06;;;;;;;;;;;;;;;11.51;38.78;94476.16;5000336;28;20291;-65
2021/10/30 10:52:31;;;;;;;;;;;;;;;11.34;38.14;94470.47;5000841;28;19971;-65
2021/10/30 10:54:56;;;;;;;;;;;;;;;11.04;38.32;94462.94;4998731;28;19933;-65
2021/10/30 10:57:28;;;;;;;;;;;;;;;11.42;37.59;94444.63;5000204;28;19928;-65
2021/10/30 11:00:07;;;;;;;;;;;;;;;11.56;37.89;94426.72;5000724;28;19922;-66
2021/10/30 11:02:33;;;;;;;;;;;;;;;11.56;37.92;94414.19;5000354;28;19928;-65
2021/10/30 11:05:07;;;;;;;;;;;;;;;11.13;39.14;94403.13;5000238;28;20342;-66
2021/10/30 11:07:32;;;;;;;;;;;;;;;11.23;39.45;94407.19;5000164;28;19954;-65
2021/10/30 11:10:00;;;;;;;;;;;;;;;11.21;38.92;94401.25;5000093;28;19921;-66
2021/10/30 11:12:26;;;;;;;;;;;;;;;11.49;38.52;94405.44;4999670;28;19926;-65
2021/10/30 11:14:56;;;;;;;;;;;;;;;11.55;38.83;94404.56;5000190;28;20309;-62
2021/10/30 11:17:24;;;;;;;;;;;;;;;11.68;38.27;94406.34;4999795;28;20291;-61
2021/10/30 11:19:50;;;;;;;;;;;;;;;11.58;38.72;94406.81;5000116;28;19990;-62
2021/10/30 11:22:16;;;;;;;;;;;;;;;11.56;38.35;94403.53;4999756;28;20410;-62
2021/10/30 11:24:51;;;;;;;;;;;;;;;11.50;38.88;94391.88;4992668;28;20403;-63
2021/10/30 11:27:16;;;;;;;;;;;;;;;11.48;38.40;94401.13;4987684;28;20027;-62
2021/10/30 11:29:51;;;;;;;;;;;;;;;11.47;38.70;94410.16;4999247;28;20027;-63
2021/10/30 11:32:16;;;;;;;;;;;;;;;11.22;39.09;94416.22;4999823;28;19983;-63
2021/10/30 11:34:47;;;;;;;;;;;;;;;11.11;39.81;94421.16;4999818;28;20286;-65
2021/10/30 11:37:12;;;;;;;;;;;;;;;11.09;39.18;94425.06;4999480;28;19961;-65
2021/10/30 11:39:38;;;;;;;;;;;;;;;11.23;39.40;94433.81;4997689;28;19966;-64
2021/10/30 11:42:04;;;;;;;;;;;;;;;10.52;41.15;94431.72;4994756;28;19925;-65
2021/10/30 11:44:29;;;;;;;;;;;;;;;10.65;39.70;94430.91;4998879;28;20462;-65
2021/10/30 11:46:55;;;;;;;;;;;;;;;10.82;40.15;94430.44;4998848;28;20050;-63
2021/10/30 11:49:27;;;;;;;;;;;;;;;10.49;41.03;94426.81;4995016;28;20185;-65
2021/10/30 11:51:58;;;;;;;;;;;;;;;10.09;42.41;94428.47;4994231;28;19921;-66
2021/10/30 11:54:23;;;;;;;;;;;;;;;10.03;41.45;94426.59;4998727;28;19925;-66
2021/10/30 11:56:49;;;;;;;;;;;;;;;10.10;41.32;94426.66;4999291;28;19925;-65
2021/10/30 11:59:14;;;;;;;;;;;;;;;10.35;40.68;94413.53;4999481;28;19941;-67
2021/10/30 12:01:39;;;;;;;;;;;;;;;10.02;42.55;94424.13;4998663;28;19929;-66
2021/10/30 12:04:05;;;;;;;;;;;;;;;9.96;42.33;94418.63;4999885;28;20419;-65
2021/10/30 12:06:30;;;;;;;;;;;;;;;9.87;42.00;94403.06;4998706;28;19925;-65
2021/10/30 12:08:57;;;;;;;;;;;;;;;10.21;41.14;94403.94;4993062;28;19948;-66
2021/10/30 12:11:23;;;;;;;;;;;;;;;9.52;43.47;94399.53;4999199;28;20306;-65
2021/10/30 12:13:49;;;;;;;;;;;;;;;10.00;41.94;94392.44;4998838;28;20398;-66
2021/10/30 12:16:15;;;;;;;;;;;;;;;9.70;43.49;94398.16;4999665;28;20018;-65
2021/10/30 12:18:41;;;;;;;;;;;;;;;10.03;42.12;94391.22;4997150;28;19957;-66
2021/10/30 12:21:07;;;;;;;;;;;;;;;9.93;42.76;94394.28;4999053;28;20109;-66
2021/10/30 12:23:33;;;;;;;;;;;;;;;9.92;42.41;94387.31;4999050;28;20128;-66
2021/10/30 12:26:02;;;;;;;;;;;;;;;9.91;42.39;94393.66;4998875;28;20286;-66
2021/10/30 12:28:32;;;;;;;;;;;;;;;10.00;41.79;94381.00;4999398;28;20437;-66
2021/10/30 12:30:57;;;;;;;;;;;;;;;10.00;41.95;94400.44;4999088;28;19921;-66
2021/10/30 12:33:23;;;;;;;;;;;;;;;9.67;42.31;94390.56;4998585;28;20610;-66
2021/10/30 12:35:49;;;;;;;;;;;;;;;9.79;42.85;94386.28;4999285;28;20028;-66
2021/10/30 12:38:15;;;;;;;;;;;;;;;9.44;43.32;94389.94;4998688;28;20563;-66
2021/10/30 12:40:40;;;;;;;;;;;;;;;9.56;43.04;94403.41;4998289;28;19936;-66
2021/10/30 12:43:10;;;;;;;;;;;;;;;9.18;43.57;94402.09;4998617;28;19926;-67
2021/10/30 12:45:41;;;;;;;;;;;;;;;8.94;46.28;94409.53;4996962;28;19928;-66
2021/10/30 12:48:26;;;;;;;;;;;;;;;9.10;44.81;94381.03;4998195;28;19925;-65